Time;durP1;ratioP1;P1;durP2;ratioP2;P2;SDS_P1;SDS_P2;PMS_P1;PMS_P2;Temp;Humidity;BMP_temperature;BMP_pressure;BME280_temperature;BME280_humidity;BME280_pressure;Samples;Min_cycle;Max_cycle;Signal;HPM_P1;HPM_P2
2024/01/10 00:01:20;;;;;;;7.33;6.63;;;21.40;54.60;;;;;;5043050;28;20453;-67
2024/01/10 00:03:49;;;;;;;6.90;6.30;;;21.40;54.60;;;;;;5043294;28;20554;-67
2024/01/10 00:06:18;;;;;;;6.87;6.27;;;21.40;54.60;;;;;;5048558;28;20575;-67
2024/01/10 00:08:47;;;;;;;10.50;6.70;;;21.40;54.60;;;;;;5049608;28;20459;-67
2024/01/10 00:11:15;;;;;;;9.83;6.57;;;21.40;54.60;;;;;;5046801;28;20479;-68
2024/01/10 00:13:43;;;;;;;7.30;6.03;;;21.40;54.60;;;;;;5046457;28;20448;-67
2024/01/10 00:16:13;;;;;;;6.70;6.10;;;21.30;54.70;;;;;;5043018;28;21319;-67
2024/01/10 00:18:41;;;;;;;6.67;5.97;;;21.30;54.70;;;;;;5043812;28;20460;-68
2024/01/10 00:21:10;;;;;;;6.27;5.73;;;21.30;54.70;;;;;;5044284;28;20484;-67
2024/01/10 00:23:40;;;;;;;7.03;6.27;;;21.30;54.70;;;;;;5051979;28;20544;-68
2024/01/10 00:26:08;;;;;;;5.93;5.40;;;21.30;54.70;;;;;;5051029;28;20465;-67
2024/01/10 00:28:36;;;;;;;6.97;6.20;;;21.30;54.70;;;;;;5047176;28;20475;-67
2024/01/10 00:31:05;;;;;;;7.47;6.80;;;21.30;54.70;;;;;;5045649;28;20457;-69
2024/01/10 00:33:33;;;;;;;7.80;7.00;;;21.20;54.70;;;;;;5048991;28;20441;-67
2024/01/10 00:36:02;;;;;;;7.37;6.60;;;21.20;54.70;;;;;;5045542;28;20460;-69
2024/01/10 00:38:30;;;;;;;7.63;6.80;;;21.20;54.70;;;;;;5039684;28;20460;-68
2024/01/10 00:41:00;;;;;;;7.40;6.70;;;21.20;54.70;;;;;;5046369;28;20461;-67
2024/01/10 00:43:28;;;;;;;6.90;6.20;;;21.20;54.70;;;;;;5051211;28;21029;-67
2024/01/10 00:45:56;;;;;;;7.57;6.80;;;21.20;54.80;;;;;;5051561;28;20460;-68
2024/01/10 00:48:25;;;;;;;7.93;7.13;;;21.20;54.80;;;;;;5049033;28;20470;-67
2024/01/10 00:50:53;;;;;;;7.40;6.70;;;21.20;54.80;;;;;;5051031;28;20456;-67
2024/01/10 00:53:21;;;;;;;7.63;6.93;;;21.10;54.80;;;;;;5050360;28;20530;-67
2024/01/10 00:55:48;;;;;;;7.77;6.93;;;21.10;54.80;;;;;;5056452;28;20856;-67
2024/01/10 00:58:18;;;;;;;8.60;7.33;;;21.10;54.80;;;;;;5037098;28;20453;-67
2024/01/10 01:00:46;;;;;;;7.50;6.90;;;21.10;54.80;;;;;;5048518;28;20492;-67
2024/01/10 01:03:15;;;;;;;7.03;6.27;;;21.10;54.80;;;;;;5036460;28;20544;-68
2024/01/10 01:05:43;;;;;;;9.23;7.00;;;21.10;54.80;;;;;;5044080;28;20479;-67
2024/01/10 01:08:11;;;;;;;7.13;6.43;;;21.10;54.80;;;;;;5046781;28;20495;-69
2024/01/10 01:10:40;;;;;;;7.37;6.77;;;21.10;54.80;;;;;;5050070;28;20939;-67
2024/01/10 01:13:08;;;;;;;7.83;7.07;;;21.10;54.80;;;;;;5042340;28;20455;-67
2024/01/10 01:15:38;;;;;;;7.33;6.63;;;21.00;54.80;;;;;;5042521;28;20467;-67
2024/01/10 01:18:06;;;;;;;7.43;6.60;;;21.00;54.80;;;;;;5046646;28;20451;-67
2024/01/10 01:20:35;;;;;;;7.17;6.57;;;21.00;54.80;;;;;;5039292;28;20456;-70
2024/01/10 01:23:03;;;;;;;6.30;5.70;;;21.00;54.80;;;;;;5038168;28;21042;-67
2024/01/10 01:25:31;;;;;;;7.53;6.83;;;21.00;54.80;;;;;;5051034;28;20452;-68
2024/01/10 01:28:00;;;;;;;6.87;6.20;;;21.00;54.80;;;;;;5051884;28;20455;-67
2024/01/10 01:30:28;;;;;;;8.67;7.97;;;21.00;54.80;;;;;;5046246;28;20528;-67
2024/01/10 01:32:57;;;;;;;7.53;6.87;;;21.00;54.80;;;;;;5045937;28;20456;-68
2024/01/10 01:35:26;;;;;;;7.53;6.83;;;21.00;54.80;;;;;;5045736;28;20926;-68
2024/01/10 01:37:54;;;;;;;6.73;6.20;;;21.00;54.80;;;;;;5049883;28;20452;-67
2024/01/10 01:40:22;;;;;;;7.57;6.97;;;21.00;54.70;;;;;;5040248;28;20459;-67
2024/01/10 01:42:50;;;;;;;7.40;6.70;;;21.00;54.70;;;;;;5050029;28;20459;-67
2024/01/10 01:45:19;;;;;;;8.50;7.10;;;21.00;54.70;;;;;;5051598;28;20441;-67
2024/01/10 01:47:47;;;;;;;6.07;5.57;;;21.00;54.70;;;;;;5048120;28;20473;-68
2024/01/10 01:50:17;;;;;;;6.87;6.27;;;21.00;54.70;;;;;;5042562;28;20464;-67
2024/01/10 01:52:45;;;;;;;7.67;6.97;;;20.90;54.90;;;;;;5047986;28;20454;-68
2024/01/10 01:55:14;;;;;;;8.63;7.90;;;20.90;54.70;;;;;;5045695;28;20470;-67
2024/01/10 01:57:42;;;;;;;8.20;7.50;;;20.90;54.70;;;;;;5049400;28;20478;-68
2024/01/10 02:00:11;;;;;;;7.07;6.47;;;20.90;54.70;;;;;;5066527;28;20517;-68
2024/01/10 02:02:41;;;;;;;7.60;6.70;;;20.90;54.70;;;;;;5049570;28;20533;-67
2024/01/10 02:05:09;;;;;;;7.03;6.23;;;20.90;54.70;;;;;;5042381;28;20580;-68
2024/01/10 02:07:39;;;;;;;6.17;5.77;;;20.90;54.70;;;;;;5049636;28;20487;-67
2024/01/10 02:10:08;;;;;;;6.53;5.93;;;20.90;54.70;;;;;;5045327;28;20455;-67
2024/01/10 02:12:37;;;;;;;7.77;7.07;;;20.90;54.70;;;;;;5042588;28;20464;-69
2024/01/10 02:15:06;;;;;;;9.33;8.23;;;20.90;54.70;;;;;;5045233;28;20457;-68
2024/01/10 02:17:34;;;;;;;8.23;7.33;;;20.90;54.70;;;;;;5045252;28;20525;-69
2024/01/10 02:20:10;;;;;;;7.57;6.90;;;20.90;54.70;;;;;;5040819;28;20474;-68
2024/01/10 02:22:39;;;;;;;8.50;6.47;;;20.90;54.70;;;;;;5040632;28;21874;-67
2024/01/10 02:25:10;;;;;;;8.17;7.00;;;20.80;54.70;;;;;;5045111;28;20946;-67
2024/01/10 02:31:38;;;;;;;7.20;6.50;;;20.80;54.90;;;;;;5050919;28;20446;-67
2024/01/10 02:34:07;;;;;;;8.00;7.03;;;20.80;54.90;;;;;;5040811;28;20466;-67
2024/01/10 02:36:35;;;;;;;7.20;6.60;;;20.80;54.90;;;;;;5051185;28;20887;-68
2024/01/10 02:39:03;;;;;;;6.37;5.83;;;20.70;54.90;;;;;;5045945;28;20550;-67
2024/01/10 02:41:33;;;;;;;6.50;5.97;;;20.70;54.90;;;;;;5052451;28;20505;-68
2024/01/10 02:44:01;;;;;;;7.50;6.80;;;20.70;54.90;;;;;;5053546;28;20447;-67
2024/01/10 02:46:29;;;;;;;6.60;6.00;;;20.70;54.90;;;;;;5054283;28;20452;-67
2024/01/10 02:48:57;;;;;;;7.17;6.57;;;20.70;54.90;;;;;;5053789;28;20467;-67
2024/01/10 02:51:28;;;;;;;7.13;6.47;;;20.70;54.90;;;;;;5052808;28;20522;-68
2024/01/10 02:53:59;;;;;;;7.63;6.77;;;20.70;54.90;;;;;;5054092;28;20440;-67
2024/01/10 02:56:27;;;;;;;7.20;6.50;;;20.70;54.90;;;;;;5053008;28;20460;-67
2024/01/10 02:58:57;;;;;;;6.30;5.70;;;20.70;54.90;;;;;;5049238;28;20472;-67
2024/01/10 03:01:25;;;;;;;7.07;6.50;;;20.70;54.90;;;;;;5044325;28;20821;-67
2024/01/10 03:03:53;;;;;;;7.80;6.70;;;20.70;54.90;;;;;;5046488;28;20447;-67
2024/01/10 03:06:21;;;;;;;7.90;7.20;;;20.60;54.90;;;;;;5043819;28;20457;-71
2024/01/10 03:08:50;;;;;;;7.57;6.87;;;20.60;54.90;;;;;;5050689;28;20468;-67
2024/01/10 03:11:18;;;;;;;7.17;6.53;;;20.60;54.90;;;;;;5051406;28;20799;-70
2024/01/10 03:13:48;;;;;;;7.00;6.40;;;20.60;55.00;;;;;;5036902;28;20481;-67
2024/01/10 03:16:18;;;;;;;7.10;6.50;;;20.60;55.00;;;;;;5038944;28;20455;-67
2024/01/10 03:18:46;;;;;;;7.30;6.60;;;20.60;55.00;;;;;;5051948;28;20440;-66
2024/01/10 03:21:22;;;;;;;8.53;7.73;;;20.60;55.00;;;;;;5047634;28;20538;-67
2024/01/10 03:23:51;;;;;;;6.53;5.93;;;20.60;55.00;;;;;;5039974;28;20795;-67
2024/01/10 03:26:22;;;;;;;6.93;6.23;;;20.60;55.00;;;;;;5051747;28;20558;-67
2024/01/10 03:28:50;;;;;;;7.20;6.57;;;20.60;55.00;;;;;;5050561;28;20518;-67
2024/01/10 03:31:20;;;;;;;8.27;7.33;;;20.60;55.00;;;;;;5047019;28;20850;-70
2024/01/10 03:33:49;;;;;;;6.50;5.90;;;20.50;55.00;;;;;;5048581;28;20443;-68
2024/01/10 03:36:19;;;;;;;6.97;6.37;;;20.50;55.00;;;;;;5037679;28;20444;-68
2024/01/10 03:38:47;;;;;;;8.23;6.50;;;20.50;55.00;;;;;;5043579;28;20456;-69
2024/01/10 03:41:15;;;;;;;6.90;6.30;;;20.50;55.00;;;;;;5043228;28;20517;-69
2024/01/10 03:43:44;;;;;;;6.87;6.37;;;20.50;55.00;;;;;;5050590;28;20449;-67
2024/01/10 03:46:13;;;;;;;6.70;6.10;;;20.50;55.10;;;;;;5056671;28;20962;-67
2024/01/10 03:48:47;;;;;;;6.77;6.03;;;20.50;55.00;;;;;;5050276;28;20479;-66
2024/01/10 03:51:17;;;;;;;8.30;7.60;;;20.50;55.00;;;;;;5052810;28;20941;-67
2024/01/10 03:53:45;;;;;;;6.73;6.20;;;20.50;55.00;;;;;;5046934;28;20484;-67
2024/01/10 03:56:13;;;;;;;6.83;6.13;;;20.40;55.00;;;;;;5043665;28;20957;-67
2024/01/10 03:58:42;;;;;;;7.30;6.60;;;20.40;55.00;;;;;;5047104;28;20455;-66
2024/01/10 04:01:10;;;;;;;8.60;6.37;;;20.40;55.00;;;;;;5041360;28;20544;-67
2024/01/10 04:03:41;;;;;;;6.43;5.90;;;20.40;55.00;;;;;;5048807;28;20554;-67
2024/01/10 04:06:11;;;;;;;8.20;7.40;;;20.40;55.00;;;;;;5051676;28;20944;-66
2024/01/10 04:08:39;;;;;;;6.70;6.10;;;20.40;55.10;;;;;;5050077;28;20454;-66
2024/01/10 04:11:08;;;;;;;6.93;6.33;;;20.40;55.10;;;;;;5049677;28;20463;-64
2024/01/10 04:13:37;;;;;;;8.03;7.27;;;20.40;55.10;;;;;;5045288;28;20496;-66
2024/01/10 04:16:06;;;;;;;6.77;6.03;;;20.40;55.10;;;;;;5046872;28;20456;-65
2024/01/10 04:18:34;;;;;;;5.93;5.53;;;20.40;55.20;;;;;;5039679;28;20457;-64
2024/01/10 04:21:02;;;;;;;7.23;6.60;;;20.40;55.10;;;;;;5047642;28;20467;-64
2024/01/10 04:23:33;;;;;;;7.70;7.00;;;20.40;55.10;;;;;;5042336;28;20455;-66
2024/01/10 04:26:03;;;;;;;7.37;6.67;;;20.30;55.10;;;;;;5050872;28;20479;-64
2024/01/10 04:28:31;;;;;;;6.53;6.03;;;20.30;55.20;;;;;;5039448;28;20458;-67
2024/01/10 04:30:59;;;;;;;7.10;6.40;;;20.30;55.20;;;;;;5045226;28;20495;-65
2024/01/10 04:33:28;;;;;;;7.87;7.10;;;20.30;55.20;;;;;;5047970;28;20465;-64
2024/01/10 04:35:56;;;;;;;7.00;6.43;;;20.30;55.20;;;;;;5046781;28;20456;-64
2024/01/10 04:38:26;;;;;;;7.20;6.60;;;20.30;55.20;;;;;;5052187;28;20439;-65
2024/01/10 04:40:56;;;;;;;7.13;6.53;;;20.30;55.20;;;;;;5043471;28;20452;-64
2024/01/10 04:43:24;;;;;;;7.33;6.63;;;20.30;55.20;;;;;;5048726;28;20454;-66
2024/01/10 04:45:52;;;;;;;7.10;6.50;;;20.30;55.20;;;;;;5043636;28;20452;-64
2024/01/10 04:48:21;;;;;;;7.40;6.70;;;20.30;55.20;;;;;;5041738;28;20448;-65
2024/01/10 04:50:51;;;;;;;7.17;6.50;;;20.30;55.20;;;;;;5045692;28;20500;-64
2024/01/10 04:53:20;;;;;;;7.33;6.63;;;20.20;55.20;;;;;;5046500;28;20456;-67
2024/01/10 04:55:48;;;;;;;7.90;7.20;;;20.20;55.20;;;;;;5036538;28;20966;-65
2024/01/10 04:58:20;;;;;;;6.70;6.10;;;20.20;55.20;;;;;;5051544;28;20463;-65
2024/01/10 05:00:48;;;;;;;7.03;6.40;;;20.20;55.20;;;;;;5041539;28;20947;-64
2024/01/10 05:03:17;;;;;;;7.40;6.40;;;20.20;55.10;;;;;;5044694;28;21121;-64
2024/01/10 05:05:45;;;;;;;7.00;6.40;;;20.20;55.10;;;;;;5054953;28;20448;-65
2024/01/10 05:08:14;;;;;;;7.20;6.60;;;20.20;55.20;;;;;;5056453;28;20483;-65
2024/01/10 05:10:42;;;;;;;7.50;6.57;;;20.20;55.20;;;;;;5050891;28;20505;-64
2024/01/10 05:13:10;;;;;;;6.33;5.73;;;20.30;55.20;;;;;;5049831;28;20462;-65
2024/01/10 05:15:42;;;;;;;7.37;6.63;;;20.30;55.20;;;;;;5055399;28;20454;-65
2024/01/10 05:18:11;;;;;;;6.90;6.20;;;20.30;55.10;;;;;;5044428;28;20482;-65
2024/01/10 05:20:39;;;;;;;7.10;6.27;;;20.40;55.00;;;;;;5058472;28;20455;-65
2024/01/10 05:23:08;;;;;;;6.17;5.67;;;20.40;55.00;;;;;;5037326;28;20495;-65
2024/01/10 05:25:36;;;;;;;8.20;6.00;;;20.50;54.90;;;;;;5043957;28;20461;-66
2024/01/10 05:28:05;;;;;;;7.13;6.33;;;20.50;54.80;;;;;;5042466;28;20852;-67
2024/01/10 05:30:33;;;;;;;6.00;5.43;;;20.60;54.70;;;;;;5054897;28;20470;-66
2024/01/10 05:33:02;;;;;;;7.73;6.93;;;20.60;54.60;;;;;;5052169;28;20452;-66
2024/01/10 05:35:31;;;;;;;8.10;6.20;;;20.70;54.60;;;;;;5056194;28;20964;-67
2024/01/10 05:37:59;;;;;;;7.40;6.80;;;20.70;54.50;;;;;;5054288;28;20460;-66
2024/01/10 05:40:29;;;;;;;8.57;7.33;;;20.80;54.40;;;;;;5047728;28;20546;-66
2024/01/10 05:42:58;;;;;;;6.70;6.07;;;20.80;54.20;;;;;;5041714;28;20466;-66
2024/01/10 05:45:26;;;;;;;7.30;6.60;;;20.90;54.20;;;;;;5048314;28;20462;-67
2024/01/10 05:47:55;;;;;;;6.80;5.47;;;21.00;54.10;;;;;;5050414;28;20535;-67
2024/01/10 05:50:24;;;;;;;7.30;6.60;;;21.00;54.00;;;;;;5043927;28;21050;-65
2024/01/10 05:52:53;;;;;;;7.57;6.83;;;21.10;53.90;;;;;;5045756;28;20476;-66
2024/01/10 05:55:23;;;;;;;6.37;5.77;;;21.10;53.90;;;;;;5048013;28;20476;-65
2024/01/10 05:57:51;;;;;;;7.20;6.50;;;21.20;53.80;;;;;;5039776;28;20486;-66
2024/01/10 06:00:20;;;;;;;7.63;7.00;;;21.30;53.80;;;;;;5040319;28;20456;-66
2024/01/10 06:02:49;;;;;;;7.37;6.77;;;21.30;53.70;;;;;;5044367;28;20449;-66
2024/01/10 06:05:17;;;;;;;7.90;7.10;;;21.40;53.70;;;;;;5054012;28;20462;-65
2024/01/10 06:07:47;;;;;;;7.27;6.67;;;21.50;53.60;;;;;;5054401;28;20510;-67
2024/01/10 06:10:15;;;;;;;7.00;6.30;;;21.50;53.60;;;;;;5043721;28;20820;-66
2024/01/10 06:12:44;;;;;;;7.60;6.87;;;21.60;53.50;;;;;;5049507;28;21864;-67
2024/01/10 06:15:12;;;;;;;7.43;6.77;;;21.60;53.40;;;;;;5051097;28;20450;-65
2024/01/10 06:17:40;;;;;;;7.90;7.17;;;21.70;53.20;;;;;;5048516;28;20971;-65
2024/01/10 06:20:10;;;;;;;7.27;6.67;;;21.70;53.20;;;;;;5046433;28;20563;-65
2024/01/10 06:22:38;;;;;;;7.30;6.70;;;21.70;53.10;;;;;;5040487;28;20463;-66
2024/01/10 06:25:09;;;;;;;6.37;5.77;;;21.80;53.10;;;;;;5042771;28;20449;-66
2024/01/10 06:27:37;;;;;;;7.17;6.53;;;21.80;53.10;;;;;;5045241;28;20480;-66
2024/01/10 06:30:07;;;;;;;7.93;7.33;;;21.70;53.00;;;;;;5056535;28;20448;-65
2024/01/10 06:32:36;;;;;;;7.23;6.53;;;21.70;53.10;;;;;;5060353;28;20461;-65
2024/01/10 06:35:05;;;;;;;7.30;6.60;;;21.70;53.10;;;;;;5050528;28;20835;-69
2024/01/10 06:37:33;;;;;;;6.90;6.30;;;21.70;53.20;;;;;;5056680;28;20519;-65
2024/01/10 06:40:05;;;;;;;7.90;7.10;;;21.60;53.30;;;;;;5058280;28;20442;-68
2024/01/10 06:42:35;;;;;;;6.90;6.30;;;21.60;53.30;;;;;;5043439;28;20793;-65
2024/01/10 06:45:05;;;;;;;7.20;6.50;;;21.60;53.40;;;;;;5045030;28;20464;-65
2024/01/10 06:47:35;;;;;;;6.83;6.23;;;21.60;53.40;;;;;;5049012;28;20455;-65
2024/01/10 06:50:05;;;;;;;7.13;6.47;;;21.50;53.40;;;;;;5043783;28;20450;-65
2024/01/10 06:52:33;;;;;;;6.63;6.03;;;21.50;53.50;;;;;;5053946;28;20928;-67
2024/01/10 06:55:02;;;;;;;7.13;6.53;;;21.50;53.50;;;;;;5051274;28;20459;-65
2024/01/10 06:57:32;;;;;;;6.80;6.20;;;21.40;53.50;;;;;;5043060;28;20461;-64
2024/01/10 07:00:03;;;;;;;6.90;6.20;;;21.50;53.50;;;;;;5049698;28;20552;-65
2024/01/10 07:02:35;;;;;;;7.20;6.53;;;21.40;53.50;;;;;;5041163;28;20457;-67
2024/01/10 07:05:05;;;;;;;9.10;7.17;;;21.40;53.50;;;;;;5054780;28;20532;-65
2024/01/10 07:07:36;;;;;;;7.13;6.53;;;21.40;53.50;;;;;;5053149;28;20830;-65
2024/01/10 07:10:05;;;;;;;6.30;5.77;;;21.50;53.50;;;;;;5051029;28;20453;-65
2024/01/10 07:12:34;;;;;;;7.00;6.13;;;21.50;53.40;;;;;;5053511;28;20481;-65
2024/01/10 07:15:05;;;;;;;6.30;5.77;;;21.50;53.40;;;;;;5054209;28;20457;-65
2024/01/10 07:17:34;;;;;;;7.43;6.63;;;21.50;53.40;;;;;;5048551;28;20452;-67
2024/01/10 07:20:03;;;;;;;6.53;5.90;;;21.50;53.50;;;;;;5038738;28;20454;-66
2024/01/10 07:22:33;;;;;;;15.73;7.87;;;21.50;53.50;;;;;;5047726;28;20865;-67
2024/01/10 07:25:01;;;;;;;7.30;6.70;;;21.50;53.60;;;;;;5063568;28;20451;-65
2024/01/10 07:27:29;;;;;;;6.80;6.10;;;21.50;53.60;;;;;;5047716;28;20450;-65
2024/01/10 07:29:59;;;;;;;6.77;6.07;;;21.60;53.70;;;;;;5052771;28;20432;-65
2024/01/10 07:32:28;;;;;;;8.10;6.50;;;21.60;53.70;;;;;;5044879;28;20466;-65
2024/01/10 07:34:58;;;;;;;9.43;7.63;;;21.60;53.80;;;;;;5047932;28;20457;-65
2024/01/10 07:37:26;;;;;;;7.00;5.73;;;21.60;53.80;;;;;;5047090;28;20466;-66
2024/01/10 07:39:54;;;;;;;6.73;6.00;;;21.60;53.80;;;;;;5046841;28;20939;-65
2024/01/10 07:42:22;;;;;;;7.60;6.70;;;21.70;53.80;;;;;;5052950;28;20446;-66
2024/01/10 07:44:53;;;;;;;7.93;7.20;;;21.70;53.80;;;;;;5044928;28;20455;-65
2024/01/10 07:47:22;;;;;;;7.30;6.60;;;21.70;53.70;;;;;;5043370;28;20510;-65
2024/01/10 07:49:52;;;;;;;6.90;6.17;;;21.70;53.80;;;;;;5046216;28;20854;-65
2024/01/10 07:52:21;;;;;;;6.47;5.87;;;21.70;53.80;;;;;;5078813;28;20468;-65
2024/01/10 07:54:52;;;;;;;10.57;7.20;;;21.70;53.80;;;;;;5054118;28;20451;-65
2024/01/10 07:57:20;;;;;;;7.40;6.70;;;21.70;53.80;;;;;;5050967;28;20956;-66
2024/01/10 07:59:49;;;;;;;8.23;6.03;;;21.70;53.90;;;;;;5049061;28;20445;-65
2024/01/10 08:02:17;;;;;;;7.50;6.70;;;21.60;53.90;;;;;;5043652;28;20925;-65
2024/01/10 08:04:45;;;;;;;7.03;6.30;;;21.60;53.90;;;;;;5049927;28;20563;-65
2024/01/10 08:07:15;;;;;;;7.40;6.23;;;21.60;53.90;;;;;;5051491;28;21141;-66
2024/01/10 08:09:43;;;;;;;7.87;7.17;;;21.60;54.00;;;;;;5050625;28;20462;-65
2024/01/10 08:12:13;;;;;;;6.97;6.33;;;21.60;54.00;;;;;;5046649;28;20956;-65
2024/01/10 08:14:45;;;;;;;7.03;6.43;;;21.50;54.00;;;;;;5049973;28;20505;-65
2024/01/10 08:17:14;;;;;;;6.43;5.87;;;21.50;54.10;;;;;;5048236;28;21823;-68
2024/01/10 08:19:42;;;;;;;7.70;6.20;;;21.50;54.10;;;;;;5048488;28;20449;-65
2024/01/10 08:22:12;;;;;;;6.37;5.87;;;21.50;54.10;;;;;;5048883;28;20466;-65
2024/01/10 08:24:42;;;;;;;6.43;5.83;;;21.50;54.10;;;;;;5044763;28;20468;-65
2024/01/10 08:27:10;;;;;;;7.10;6.40;;;21.50;54.10;;;;;;5046814;28;20454;-65
2024/01/10 08:29:38;;;;;;;7.00;6.30;;;21.50;54.10;;;;;;5054037;28;21360;-65
2024/01/10 08:32:07;;;;;;;7.57;6.67;;;21.50;54.10;;;;;;5063295;28;20500;-67
2024/01/10 08:34:35;;;;;;;7.27;6.57;;;21.50;54.10;;;;;;5060883;28;20463;-69
2024/01/10 08:37:04;;;;;;;6.40;5.80;;;21.50;54.10;;;;;;5062057;28;20838;-65
2024/01/10 08:39:32;;;;;;;9.33;6.30;;;21.50;54.10;;;;;;5044389;28;20453;-65
2024/01/10 08:42:02;;;;;;;7.20;6.23;;;21.60;54.10;;;;;;5052868;28;20448;-66
2024/01/10 08:44:30;;;;;;;7.07;6.37;;;21.60;54.10;;;;;;5052961;28;20473;-65
2024/01/10 08:46:59;;;;;;;7.43;6.03;;;21.60;54.00;;;;;;5040588;28;20541;-64
2024/01/10 08:49:27;;;;;;;8.00;6.60;;;21.60;54.00;;;;;;5057141;28;20489;-66
2024/01/10 08:51:56;;;;;;;8.43;6.80;;;21.70;53.90;;;;;;5048312;28;20473;-66
2024/01/10 08:54:25;;;;;;;8.07;6.73;;;21.70;53.80;;;;;;5048004;28;20454;-66
2024/01/10 08:56:53;;;;;;;6.17;5.57;;;21.70;53.80;;;;;;5049283;28;20455;-65
2024/01/10 08:59:22;;;;;;;8.03;6.37;;;21.70;53.70;;;;;;5048133;28;20511;-65
2024/01/10 09:01:52;;;;;;;6.97;6.27;;;21.70;53.70;;;;;;5047621;28;20473;-65
2024/01/10 09:04:20;;;;;;;6.77;6.20;;;21.70;53.60;;;;;;5039642;28;20461;-65
2024/01/10 09:06:48;;;;;;;7.40;6.43;;;21.70;53.60;;;;;;5048055;28;20551;-65
2024/01/10 09:09:20;;;;;;;7.60;6.90;;;21.80;53.60;;;;;;5048667;28;20956;-66
2024/01/10 09:11:49;;;;;;;7.33;6.73;;;21.70;53.50;;;;;;5049534;28;20626;-65
2024/01/10 09:14:17;;;;;;;6.87;5.70;;;21.80;53.50;;;;;;5050007;28;20468;-65
2024/01/10 09:16:48;;;;;;;7.27;6.57;;;21.80;53.50;;;;;;5048058;28;20466;-67
2024/01/10 09:19:17;;;;;;;8.00;7.30;;;21.80;53.40;;;;;;5042045;28;20503;-65
2024/01/10 09:21:45;;;;;;;7.33;6.63;;;21.80;53.40;;;;;;5045499;28;20580;-66
2024/01/10 09:24:14;;;;;;;6.70;6.10;;;21.80;53.40;;;;;;5044781;28;20462;-65
2024/01/10 09:26:56;;;;;;;6.23;5.73;;;21.80;53.40;;;;;;5045456;28;20462;-68
2024/01/10 09:29:25;;;;;;;7.70;7.00;;;21.80;53.40;;;;;;5048739;28;20866;-65
2024/01/10 09:31:56;;;;;;;7.63;6.90;;;21.80;53.40;;;;;;5057882;28;20469;-66
2024/01/10 09:34:24;;;;;;;7.63;6.97;;;21.80;53.40;;;;;;5057300;28;20468;-65
2024/01/10 09:36:53;;;;;;;6.70;6.10;;;21.90;53.40;;;;;;5060696;28;20436;-65
2024/01/10 09:39:22;;;;;;;6.90;6.20;;;21.90;53.30;;;;;;5052408;28;20489;-66
2024/01/10 09:41:51;;;;;;;7.27;5.67;;;21.90;53.30;;;;;;5060260;28;20442;-65
2024/01/10 09:44:21;;;;;;;7.43;6.73;;;21.90;53.30;;;;;;5056143;28;20532;-65
2024/01/10 09:46:53;;;;;;;6.80;6.20;;;21.80;53.30;;;;;;5055064;28;20513;-67
2024/01/10 09:49:23;;;;;;;7.53;6.77;;;21.80;53.30;;;;;;5034003;28;20987;-66
2024/01/10 09:51:58;;;;;;;7.00;6.40;;;21.80;53.30;;;;;;5041382;28;20457;-65
2024/01/10 09:54:30;;;;;;;6.57;5.97;;;21.80;53.40;;;;;;5047796;28;20473;-66
2024/01/10 09:56:58;;;;;;;6.67;6.07;;;21.80;53.60;;;;;;5042513;28;20453;-66
2024/01/10 09:59:27;;;;;;;7.67;6.97;;;21.80;53.60;;;;;;5046297;28;20470;-69
2024/01/10 10:01:58;;;;;;;6.63;6.03;;;21.80;53.70;;;;;;5048311;28;20488;-66
2024/01/10 10:04:29;;;;;;;6.80;6.20;;;21.80;53.70;;;;;;5042946;28;20475;-66
2024/01/10 10:07:01;;;;;;;6.60;5.70;;;21.80;53.80;;;;;;5040881;28;20494;-66
2024/01/10 10:09:31;;;;;;;6.23;5.73;;;21.80;53.80;;;;;;5039859;28;20952;-68
2024/01/10 10:12:00;;;;;;;7.70;7.00;;;21.80;53.90;;;;;;5047042;28;20486;-65
2024/01/10 10:14:30;;;;;;;7.40;6.40;;;21.80;53.80;;;;;;5045349;28;20484;-67
2024/01/10 10:17:15;;;;;;;7.50;6.80;;;21.90;53.80;;;;;;5048098;28;20468;-66
2024/01/10 10:19:45;;;;;;;7.90;7.10;;;21.90;53.80;;;;;;5043815;28;20485;-65
2024/01/10 10:22:14;;;;;;;7.27;6.67;;;21.90;53.80;;;;;;5047085;28;20454;-68
2024/01/10 10:24:44;;;;;;;7.80;6.93;;;22.00;53.80;;;;;;5048235;28;20529;-65
2024/01/10 10:27:13;;;;;;;7.23;6.53;;;22.00;53.80;;;;;;5042592;28;20540;-65
2024/01/10 10:29:41;;;;;;;6.80;6.20;;;22.00;53.70;;;;;;5047609;28;20455;-68
2024/01/10 10:32:13;;;;;;;7.93;7.13;;;22.00;53.70;;;;;;5045534;28;20466;-66
2024/01/10 10:34:41;;;;;;;7.40;6.70;;;22.00;53.70;;;;;;5046100;28;20481;-67
2024/01/10 10:37:11;;;;;;;7.50;6.70;;;22.10;53.70;;;;;;5045617;28;20462;-65
2024/01/10 10:39:41;;;;;;;10.63;7.33;;;22.10;53.70;;;;;;5045049;28;20607;-65
2024/01/10 10:42:09;;;;;;;8.27;6.97;;;22.10;53.70;;;;;;5036894;28;20466;-70
2024/01/10 10:44:42;;;;;;;8.10;7.40;;;22.10;53.60;;;;;;5047868;28;20456;-69
2024/01/10 10:47:12;;;;;;;8.73;7.20;;;22.10;53.40;;;;;;5038064;28;20450;-69
2024/01/10 10:49:50;;;;;;;7.23;5.87;;;22.10;53.30;;;;;;5046116;28;20442;-71
2024/01/10 10:52:20;;;;;;;6.97;6.27;;;22.10;53.10;;;;;;5042470;28;20450;-70
2024/01/10 10:54:50;;;;;;;7.23;6.57;;;22.10;53.10;;;;;;5049540;28;20462;-69
2024/01/10 10:57:20;;;;;;;7.20;6.60;;;22.00;53.10;;;;;;5051983;28;20450;-69
2024/01/10 10:59:51;;;;;;;7.40;6.60;;;22.00;53.10;;;;;;5052841;28;20454;-70
2024/01/10 11:02:23;;;;;;;6.30;5.70;;;22.00;53.20;;;;;;5054735;28;20431;-69
2024/01/10 11:04:56;;;;;;;8.10;7.30;;;22.00;53.20;;;;;;5047702;28;20460;-69
2024/01/10 11:07:27;;;;;;;7.57;6.77;;;22.00;53.30;;;;;;5046450;28;20481;-69
2024/01/10 11:09:57;;;;;;;7.73;7.00;;;21.90;53.20;;;;;;5055790;28;20952;-69
2024/01/10 11:12:40;;;;;;;6.67;6.03;;;21.90;53.20;;;;;;5059626;28;20473;-73
2024/01/10 11:15:23;;;;;;;9.10;7.27;;;21.80;53.10;;;;;;5048699;28;20462;-70
2024/01/10 11:18:22;;;;;;;7.10;6.50;;;21.80;53.00;;;;;;5040639;28;20575;-70
2024/01/10 11:21:07;;;;;;;8.03;7.33;;;21.80;53.10;;;;;;5059932;28;20574;-70
2024/01/10 11:23:46;;;;;;;6.93;6.33;;;21.80;53.30;;;;;;5035674;28;20463;-72
2024/01/10 11:26:16;;;;;;;7.83;7.00;;;21.80;53.30;;;;;;5039546;28;20949;-69
2024/01/10 11:28:45;;;;;;;8.70;7.20;;;21.80;53.30;;;;;;5041108;28;20541;-69
2024/01/10 11:31:15;;;;;;;7.20;6.50;;;21.80;53.30;;;;;;5037573;28;20455;-70
2024/01/10 11:33:44;;;;;;;6.80;6.20;;;21.80;53.20;;;;;;5043225;28;20497;-69
2024/01/10 11:36:15;;;;;;;7.67;6.97;;;21.80;53.20;;;;;;5046721;28;20459;-72
2024/01/10 11:38:49;;;;;;;7.50;6.80;;;21.80;53.20;;;;;;5046523;28;20816;-69
2024/01/10 11:41:22;;;;;;;7.40;6.70;;;21.80;53.10;;;;;;5039064;28;20448;-70
2024/01/10 11:44:40;;;;;;;7.40;6.70;;;21.80;53.10;;;;;;5035679;28;20454;-73
2024/01/10 11:47:09;;;;;;;7.13;6.43;;;21.80;53.00;;;;;;5037544;28;20833;-70
2024/01/10 11:49:37;;;;;;;6.60;5.90;;;21.90;53.00;;;;;;5046780;28;20539;-71
2024/01/10 11:52:07;;;;;;;8.03;7.23;;;21.90;52.90;;;;;;5050209;28;20806;-69
2024/01/10 11:54:41;;;;;;;7.87;7.07;;;21.90;52.90;;;;;;5044653;28;20474;-72
2024/01/10 11:57:14;;;;;;;7.83;7.13;;;21.90;52.80;;;;;;5046456;28;20785;-69
2024/01/10 11:59:44;;;;;;;7.00;6.30;;;22.00;52.80;;;;;;5049036;28;20942;-70
2024/01/10 12:02:14;;;;;;;8.00;7.20;;;22.00;52.80;;;;;;5044226;28;20541;-69
2024/01/10 12:04:43;;;;;;;6.63;6.13;;;22.00;52.70;;;;;;5048598;28;20469;-70
2024/01/10 12:07:17;;;;;;;8.03;7.13;;;22.00;52.70;;;;;;5051557;28;20470;-70
2024/01/10 12:09:48;;;;;;;7.70;6.77;;;22.00;52.70;;;;;;5044998;28;20461;-72
2024/01/10 12:12:17;;;;;;;7.33;6.63;;;22.00;52.70;;;;;;5042642;28;20458;-73
2024/01/10 12:14:45;;;;;;;9.33;8.40;;;22.10;52.60;;;;;;5043131;28;20510;-70
2024/01/10 12:17:14;;;;;;;9.27;7.60;;;22.10;52.60;;;;;;5058276;28;20453;-70
2024/01/10 12:19:44;;;;;;;8.63;7.37;;;22.20;52.40;;;;;;5053395;28;20462;-68
2024/01/10 12:22:14;;;;;;;7.13;6.53;;;22.30;52.30;;;;;;5043248;28;20461;-70
2024/01/10 12:24:50;;;;;;;7.70;6.90;;;22.30;52.30;;;;;;5048698;28;20463;-67
2024/01/10 12:27:20;;;;;;;8.93;7.97;;;22.30;52.40;;;;;;5056622;28;20543;-65
2024/01/10 12:29:51;;;;;;;9.20;7.53;;;22.40;52.40;;;;;;5055705;28;20465;-66
2024/01/10 12:32:22;;;;;;;7.97;7.17;;;22.40;52.30;;;;;;5054218;28;20539;-65
2024/01/10 12:35:01;;;;;;;6.40;5.90;;;22.50;52.20;;;;;;5054072;28;20581;-68
2024/01/10 12:37:30;;;;;;;7.57;6.77;;;22.50;52.20;;;;;;5061399;28;20457;-65
2024/01/10 12:39:59;;;;;;;6.83;6.20;;;22.60;52.00;;;;;;5047973;28;20471;-65
2024/01/10 12:42:28;;;;;;;7.53;6.67;;;22.70;52.00;;;;;;5053530;28;20473;-65
2024/01/10 12:44:56;;;;;;;7.33;6.63;;;22.80;51.90;;;;;;5051034;28;20546;-64
2024/01/10 12:47:26;;;;;;;7.80;6.80;;;22.80;51.70;;;;;;5050701;28;20518;-66
2024/01/10 12:49:55;;;;;;;6.87;6.23;;;22.90;51.70;;;;;;5055832;28;21217;-69
2024/01/10 12:52:24;;;;;;;6.60;6.00;;;23.00;51.60;;;;;;5055660;28;20456;-66
2024/01/10 12:54:53;;;;;;;7.97;6.97;;;23.10;51.50;;;;;;5057262;28;20474;-67
2024/01/10 12:57:23;;;;;;;7.27;6.67;;;23.10;51.40;;;;;;5063228;28;20453;-67
2024/01/10 12:59:52;;;;;;;11.03;7.60;;;23.10;51.30;;;;;;5060678;28;20433;-67
2024/01/10 13:02:21;;;;;;;7.47;6.77;;;23.20;51.30;;;;;;5058729;28;20456;-70